createdAt,value
2017-11-16T00:00:49.826Z,27.10
2017-11-16T00:03:17.965Z,26.90
2017-11-16T00:05:46.853Z,27.83
2017-11-16T00:08:15.789Z,26.47
2017-11-16T00:10:43.911Z,28.30
2017-11-16T00:13:12.254Z,26.40
2017-11-16T00:15:41.174Z,26.73
2017-11-16T00:18:09.293Z,26.77
2017-11-16T00:20:37.433Z,25.50
2017-11-16T00:23:06.332Z,25.13
2017-11-16T00:25:35.233Z,25.27
2017-11-16T00:28:03.363Z,24.13
2017-11-16T00:30:31.500Z,28.00
2017-11-16T00:32:59.634Z,24.73
2017-11-16T00:35:28.544Z,25.40
2017-11-16T00:37:56.678Z,24.50
2017-11-16T00:40:24.797Z,26.63
2017-11-16T00:42:52.936Z,25.73
2017-11-16T00:45:21.829Z,25.83
2017-11-16T00:47:50.740Z,26.97
2017-11-16T00:50:18.848Z,26.93
2017-11-16T00:52:46.994Z,26.63
2017-11-16T00:55:15.148Z,28.00
2017-11-16T00:57:43.269Z,30.23
2017-11-16T01:00:11.406Z,26.10
2017-11-16T01:02:39.544Z,28.30
2017-11-16T01:05:07.740Z,27.40
2017-11-16T01:07:35.879Z,28.03
2017-11-16T01:10:04.017Z,29.20
2017-11-16T01:12:32.145Z,24.97
2017-11-16T01:15:00.297Z,30.10
2017-11-16T01:17:28.508Z,29.73
2017-11-16T01:19:56.648Z,28.53
2017-11-16T01:22:25.545Z,28.60
2017-11-16T01:24:54.433Z,29.43
2017-11-16T01:27:23.352Z,27.33
2017-11-16T01:29:51.464Z,28.30
2017-11-16T01:32:19.597Z,28.97
2017-11-16T01:34:47.722Z,28.17
2017-11-16T01:37:15.869Z,28.97
2017-11-16T01:39:44.016Z,26.70
2017-11-16T01:42:12.778Z,26.53
2017-11-16T01:44:41.669Z,31.03
2017-11-16T01:47:09.839Z,29.87
2017-11-16T01:49:37.947Z,25.80
2017-11-16T01:52:06.073Z,27.83
2017-11-16T01:54:34.982Z,28.67
2017-11-16T01:57:03.116Z,32.93
2017-11-16T01:59:31.277Z,28.13
2017-11-16T02:01:59.395Z,29.23
2017-11-16T02:04:28.285Z,31.00
2017-11-16T02:06:56.434Z,28.40
2017-11-16T02:09:24.608Z,27.40
2017-11-16T02:11:52.751Z,28.30
2017-11-16T02:14:20.865Z,29.33
2017-11-16T02:16:49.774Z,29.03
2017-11-16T02:19:17.928Z,29.40
2017-11-16T02:21:46.826Z,31.80
2017-11-16T02:24:14.968Z,29.50
2017-11-16T02:26:43.088Z,28.63
2017-11-16T02:29:11.215Z,28.60
2017-11-16T02:31:39.369Z,29.67
2017-11-16T02:34:07.491Z,31.07
2017-11-16T02:36:35.701Z,31.07
2017-11-16T02:39:03.826Z,30.67
2017-11-16T02:41:31.982Z,31.40
2017-11-16T02:44:00.946Z,31.97
2017-11-16T02:46:29.074Z,32.13
2017-11-16T02:48:57.314Z,31.20
2017-11-16T02:51:25.444Z,32.33
2017-11-16T02:53:53.576Z,30.67
2017-11-16T02:56:22.476Z,30.43
2017-11-16T02:58:51.380Z,32.97
2017-11-16T03:01:19.501Z,33.10
2017-11-16T03:03:47.642Z,31.30
2017-11-16T03:06:15.765Z,31.90
2017-11-16T03:08:44.773Z,31.27
2017-11-16T03:11:12.929Z,34.17
2017-11-16T03:13:41.039Z,34.03
2017-11-16T03:16:09.178Z,33.90
2017-11-16T03:18:38.067Z,31.83
2017-11-16T03:21:07.005Z,33.37
2017-11-16T03:23:35.135Z,34.20
2017-11-16T03:26:04.041Z,32.73
2017-11-16T03:28:32.177Z,34.37
2017-11-16T03:31:00.289Z,32.60
2017-11-16T03:33:28.422Z,34.90
2017-11-16T03:35:56.565Z,34.93
2017-11-16T03:38:24.688Z,32.10
2017-11-16T03:40:52.805Z,33.00
2017-11-16T03:43:21.714Z,33.60
2017-11-16T03:45:49.842Z,35.50
2017-11-16T03:48:18.027Z,35.57
2017-11-16T03:50:46.146Z,36.10
2017-11-16T03:53:14.299Z,34.07
2017-11-16T03:55:42.443Z,34.37
2017-11-16T03:58:10.577Z,33.87
2017-11-16T04:00:39.494Z,35.47
2017-11-16T04:03:07.618Z,30.57
2017-11-16T04:05:35.769Z,32.57
2017-11-16T04:08:03.914Z,31.90
2017-11-16T04:10:32.036Z,33.27
2017-11-16T04:13:00.172Z,30.97
2017-11-16T04:15:28.286Z,32.63
2017-11-16T04:17:56.421Z,33.83
2017-11-16T04:20:24.553Z,29.50
2017-11-16T04:22:52.725Z,32.77
2017-11-16T04:25:21.672Z,32.37
2017-11-16T04:27:49.806Z,32.63
2017-11-16T04:30:17.936Z,32.33
2017-11-16T04:32:46.060Z,33.57
2017-11-16T04:35:14.245Z,33.20
2017-11-16T04:37:42.377Z,34.40
2017-11-16T04:40:10.522Z,31.47
2017-11-16T04:42:38.645Z,30.60
2017-11-16T04:45:06.761Z,32.50
2017-11-16T04:47:34.902Z,32.93
2017-11-16T04:50:03.030Z,33.27
2017-11-16T04:52:31.969Z,30.30
2017-11-16T04:55:00.088Z,33.90
2017-11-16T04:57:29.003Z,32.77
2017-11-16T04:59:57.174Z,32.10
2017-11-16T05:02:25.326Z,32.13
2017-11-16T05:04:54.372Z,33.10
2017-11-16T05:07:22.529Z,31.90
2017-11-16T05:09:50.672Z,31.10
2017-11-16T05:12:19.567Z,30.10
2017-11-16T05:14:48.494Z,32.60
2017-11-16T05:17:16.656Z,31.63
2017-11-16T05:19:44.825Z,30.93
2017-11-16T05:22:12.944Z,30.37
2017-11-16T05:24:41.082Z,30.40
2017-11-16T05:27:09.300Z,30.53
2017-11-16T05:29:38.213Z,30.67
2017-11-16T05:32:06.333Z,32.10
2017-11-16T05:34:34.490Z,29.00
2017-11-16T05:37:02.617Z,29.97
2017-11-16T05:39:31.509Z,29.83
2017-11-16T05:42:00.417Z,33.43
2017-11-16T05:44:28.529Z,29.90
2017-11-16T05:46:56.705Z,30.23
2017-11-16T05:49:24.817Z,32.60
2017-11-16T05:51:53.725Z,30.27
2017-11-16T05:54:21.927Z,28.77
2017-11-16T05:56:50.510Z,30.07
2017-11-16T05:59:18.634Z,30.80
2017-11-16T06:01:47.579Z,30.17
2017-11-16T06:04:16.502Z,29.40
2017-11-16T06:06:44.642Z,30.33
2017-11-16T06:09:13.552Z,30.60
2017-11-16T06:11:41.705Z,32.20
2017-11-16T06:14:09.831Z,31.60
2017-11-16T06:16:38.753Z,27.97
2017-11-16T06:19:06.958Z,27.23
2017-11-16T06:21:35.089Z,28.87
2017-11-16T06:24:03.217Z,29.03
2017-11-16T06:26:32.153Z,27.87
2017-11-16T06:29:00.275Z,30.10
2017-11-16T06:31:28.509Z,29.43
2017-11-16T06:33:57.429Z,29.53
2017-11-16T06:36:25.558Z,28.60
2017-11-16T06:38:53.689Z,27.60
2017-11-16T06:41:21.923Z,29.30
2017-11-16T06:43:50.261Z,29.60
2017-11-16T06:46:18.570Z,29.80
2017-11-16T06:48:46.686Z,29.20
2017-11-16T06:51:15.645Z,28.67
2017-11-16T06:53:43.767Z,26.50
2017-11-16T06:56:12.677Z,33.07
2017-11-16T06:58:40.825Z,30.50
2017-11-16T07:01:09.717Z,32.37
2017-11-16T07:03:38.629Z,34.47
2017-11-16T07:06:07.540Z,32.37
2017-11-16T07:08:35.688Z,30.60
2017-11-16T07:11:03.827Z,31.80
2017-11-16T07:13:31.977Z,29.20
2017-11-16T07:16:00.869Z,31.60
2017-11-16T07:18:29.001Z,28.80
2017-11-16T07:20:57.129Z,31.40
2017-11-16T07:23:25.288Z,31.50
2017-11-16T07:25:53.414Z,29.80
2017-11-16T07:28:21.558Z,29.10
2017-11-16T07:30:50.469Z,30.23
2017-11-16T07:33:18.595Z,30.07
2017-11-16T07:35:46.730Z,28.37
2017-11-16T07:38:14.858Z,32.00
2017-11-16T07:40:49.570Z,30.90
2017-11-16T07:43:17.823Z,31.10
2017-11-16T07:45:45.970Z,30.63
2017-11-16T07:48:14.098Z,31.70
2017-11-16T07:50:42.226Z,30.10
2017-11-16T07:53:10.372Z,33.43
2017-11-16T07:55:39.278Z,31.10
2017-11-16T07:58:07.425Z,33.10
2017-11-16T08:00:36.312Z,31.90
2017-11-16T08:03:05.231Z,30.93
2017-11-16T08:05:33.366Z,30.97
2017-11-16T08:08:01.510Z,32.13
2017-11-16T08:10:29.670Z,32.80
2017-11-16T08:12:57.805Z,34.43
2017-11-16T08:15:25.954Z,32.57
2017-11-16T08:17:54.845Z,32.20
2017-11-16T08:20:23.763Z,31.73
2017-11-16T08:22:51.887Z,30.33
2017-11-16T08:25:20.045Z,30.30
2017-11-16T08:27:48.190Z,25.50
2017-11-16T08:30:16.327Z,27.40
2017-11-16T08:32:45.227Z,26.37
2017-11-16T08:35:14.125Z,25.07
2017-11-16T08:37:42.349Z,24.70
2017-11-16T08:40:10.477Z,24.93
2017-11-16T08:42:38.625Z,24.87
2017-11-16T08:45:06.738Z,24.87
2017-11-16T08:47:34.898Z,24.27
2017-11-16T08:50:03.786Z,23.40
2017-11-16T08:52:31.917Z,24.80
2017-11-16T08:55:00.102Z,23.80
2017-11-16T08:57:28.246Z,24.10
2017-11-16T08:59:56.371Z,23.17
2017-11-16T09:02:24.506Z,21.80
2017-11-16T09:04:52.638Z,21.67
2017-11-16T09:07:20.810Z,24.17
2017-11-16T09:09:48.947Z,22.20
2017-11-16T09:12:17.864Z,23.77
2017-11-16T09:14:45.977Z,23.40
2017-11-16T09:17:14.130Z,23.20
2017-11-16T09:19:42.256Z,23.60
2017-11-16T09:22:11.153Z,24.30
2017-11-16T09:24:40.067Z,20.33
2017-11-16T09:27:08.244Z,20.57
2017-11-16T09:29:36.392Z,22.30
2017-11-16T09:32:04.517Z,22.10
2017-11-16T09:34:32.678Z,21.67
2017-11-16T09:37:00.801Z,20.87
2017-11-16T09:39:29.813Z,20.63
2017-11-16T09:41:57.940Z,18.90
2017-11-16T09:44:27.585Z,17.67
2017-11-16T09:46:55.714Z,20.50
2017-11-16T09:49:23.869Z,17.80
2017-11-16T09:51:52.027Z,19.90
2017-11-16T09:54:20.145Z,18.77
2017-11-16T09:56:49.046Z,19.03
2017-11-16T09:59:17.942Z,19.00
2017-11-16T10:01:46.130Z,18.87
2017-11-16T10:04:14.303Z,18.00
2017-11-16T10:06:42.425Z,19.20
2017-11-16T10:09:10.572Z,19.47
2017-11-16T10:11:38.698Z,20.67
2017-11-16T10:14:07.618Z,18.53
2017-11-16T10:16:35.812Z,17.90
2017-11-16T10:19:03.940Z,17.43
2017-11-16T10:21:32.845Z,19.27
2017-11-16T10:24:01.775Z,19.03
2017-11-16T10:26:29.965Z,18.40
2017-11-16T10:28:58.082Z,22.53
2017-11-16T10:31:26.288Z,20.20
2017-11-16T10:33:54.465Z,18.60
2017-11-16T10:36:22.589Z,18.80
2017-11-16T10:38:51.499Z,19.37
2017-11-16T10:41:19.629Z,17.83
2017-11-16T10:43:48.042Z,19.67
2017-11-16T10:46:20.811Z,17.13
2017-11-16T10:48:49.777Z,17.83
2017-11-16T10:51:17.913Z,18.83
2017-11-16T10:53:46.055Z,20.87
2017-11-16T10:56:14.972Z,22.87
2017-11-16T10:58:43.144Z,22.10
2017-11-16T11:01:11.282Z,24.50
2017-11-16T11:03:40.229Z,25.80
2017-11-16T11:06:08.402Z,20.47
2017-11-16T11:08:36.553Z,21.67
2017-11-16T11:11:04.698Z,21.90
2017-11-16T11:13:32.827Z,29.80
2017-11-16T11:16:00.983Z,27.87
2017-11-16T11:18:29.118Z,34.60
2017-11-16T11:20:58.003Z,33.00
2017-11-16T11:23:26.914Z,22.20
2017-11-16T11:25:55.041Z,19.50
2017-11-16T11:28:23.182Z,21.27
2017-11-16T11:30:51.334Z,21.70
2017-11-16T11:33:19.500Z,20.47
2017-11-16T11:35:47.625Z,18.60
2017-11-16T11:38:15.774Z,19.57
2017-11-16T11:40:43.910Z,20.93
2017-11-16T11:45:46.772Z,22.10
2017-11-16T11:48:14.916Z,21.60
2017-11-16T11:50:43.057Z,21.07
2017-11-16T11:53:11.178Z,20.63
2017-11-16T11:55:39.339Z,21.20
2017-11-16T11:58:07.446Z,22.17
2017-11-16T12:00:36.349Z,21.77
2017-11-16T12:03:05.270Z,20.70
2017-11-16T12:05:33.409Z,19.90
2017-11-16T12:08:02.331Z,22.03
2017-11-16T12:10:30.498Z,19.37
2017-11-16T12:12:58.650Z,21.33
2017-11-16T12:15:27.540Z,20.30
2017-11-16T12:17:56.480Z,19.40
2017-11-16T12:20:24.638Z,19.90
2017-11-16T12:22:52.768Z,18.47
2017-11-16T12:25:21.674Z,20.97
2017-11-16T12:27:49.836Z,20.33
2017-11-16T12:30:18.739Z,21.60
2017-11-16T12:32:46.870Z,20.60
2017-11-16T12:35:15.012Z,20.57
2017-11-16T12:37:43.150Z,20.40
2017-11-16T12:40:12.091Z,21.17
2017-11-16T12:42:40.218Z,20.73
2017-11-16T12:45:08.357Z,21.00
2017-11-16T12:47:36.487Z,20.60
2017-11-16T12:50:04.628Z,21.37
2017-11-16T12:52:33.534Z,21.70
2017-11-16T12:55:01.687Z,20.80
2017-11-16T12:57:30.598Z,21.73
2017-11-16T12:59:59.388Z,20.90
2017-11-16T13:02:27.520Z,20.53
2017-11-16T13:04:55.659Z,22.20
2017-11-16T13:07:23.785Z,21.10
2017-11-16T13:09:52.687Z,23.70
2017-11-16T13:12:20.877Z,20.80
2017-11-16T13:14:49.038Z,21.20
2017-11-16T13:17:17.191Z,20.43
2017-11-16T13:19:46.098Z,19.63
2017-11-16T13:22:14.220Z,20.53
2017-11-16T13:24:42.376Z,18.90
2017-11-16T13:27:10.510Z,21.43
2017-11-16T13:29:38.667Z,20.27
2017-11-16T13:32:07.571Z,18.23
2017-11-16T13:34:35.718Z,20.77
2017-11-16T13:37:04.637Z,20.00
2017-11-16T13:39:32.777Z,20.60
2017-11-16T13:42:00.988Z,19.80
2017-11-16T13:44:30.047Z,19.30
2017-11-16T13:46:58.184Z,20.30
2017-11-16T13:49:26.331Z,20.37
2017-11-16T13:51:54.477Z,20.53
2017-11-16T13:54:23.386Z,19.63
2017-11-16T13:56:52.390Z,21.50
2017-11-16T13:59:20.542Z,20.20
2017-11-16T14:01:48.721Z,20.30
2017-11-16T14:04:17.637Z,19.33
2017-11-16T14:06:45.776Z,21.27
2017-11-16T14:09:14.669Z,25.43
2017-11-16T14:11:42.790Z,23.53
2017-11-16T14:14:10.950Z,24.83
2017-11-16T14:16:39.061Z,19.90
2017-11-16T14:19:08.069Z,19.50
2017-11-16T14:21:36.978Z,22.13
2017-11-16T14:24:05.145Z,21.50
2017-11-16T14:26:34.036Z,21.60
2017-11-16T14:29:02.970Z,22.53
2017-11-16T14:31:31.094Z,22.03
2017-11-16T14:33:59.217Z,21.13
2017-11-16T14:36:27.379Z,23.37
2017-11-16T14:38:55.503Z,21.13
2017-11-16T14:41:24.434Z,20.80
2017-11-16T14:43:52.564Z,22.47
2017-11-16T14:46:21.474Z,22.97
2017-11-16T14:48:49.603Z,22.60
2017-11-16T14:51:17.774Z,23.20
2017-11-16T14:53:45.900Z,20.73
2017-11-16T14:56:14.041Z,21.07
2017-11-16T14:58:42.927Z,20.03
2017-11-16T15:01:11.847Z,21.00
2017-11-16T15:03:39.983Z,21.53
2017-11-16T15:06:08.866Z,21.40
2017-11-16T15:08:37.083Z,21.30
2017-11-16T15:11:05.244Z,22.57
2017-11-16T15:13:34.146Z,20.70
2017-11-16T15:16:02.291Z,19.80
2017-11-16T15:18:31.192Z,22.97
2017-11-16T15:20:59.338Z,23.27
2017-11-16T15:23:27.473Z,21.20
2017-11-16T15:25:55.615Z,19.67
2017-11-16T15:28:23.778Z,19.70
2017-11-16T15:30:52.022Z,20.47
2017-11-16T15:33:20.166Z,19.50
2017-11-16T15:35:48.303Z,21.20
2017-11-16T15:38:16.471Z,22.50
2017-11-16T15:40:45.371Z,22.77
2017-11-16T15:43:13.531Z,21.60
2017-11-16T15:45:41.671Z,20.53
2017-11-16T15:48:09.827Z,22.03
2017-11-16T15:50:37.967Z,21.40
2017-11-16T15:53:06.118Z,22.00
2017-11-16T15:55:34.255Z,23.10
2017-11-16T15:58:02.432Z,22.10
2017-11-16T16:00:30.553Z,21.93
2017-11-16T16:02:59.454Z,20.93
2017-11-16T16:05:27.643Z,22.03
2017-11-16T16:07:55.772Z,22.70
2017-11-16T16:10:24.696Z,22.10
2017-11-16T16:12:52.864Z,22.90
2017-11-16T16:15:20.976Z,25.20
2017-11-16T16:17:49.131Z,21.00
2017-11-16T16:20:17.252Z,20.63
2017-11-16T16:22:46.197Z,19.33
2017-11-16T16:25:14.331Z,20.87
2017-11-16T16:27:42.504Z,19.73
2017-11-16T16:30:10.643Z,21.60
2017-11-16T16:32:38.795Z,21.30
2017-11-16T16:35:07.702Z,19.50
2017-11-16T16:37:35.877Z,23.50
2017-11-16T16:40:04.831Z,21.33
2017-11-16T16:42:32.987Z,21.30
2017-11-16T16:45:01.131Z,24.77
2017-11-16T16:47:29.325Z,21.80
2017-11-16T16:49:57.502Z,23.57
2017-11-16T16:52:25.650Z,23.27
2017-11-16T16:54:54.581Z,22.63
2017-11-16T16:57:22.745Z,21.80
2017-11-16T16:59:51.656Z,21.20
2017-11-16T17:02:20.084Z,23.77
2017-11-16T17:04:48.237Z,24.33
2017-11-16T17:07:16.395Z,22.40
2017-11-16T17:09:44.540Z,19.90
2017-11-16T17:12:12.699Z,21.47
2017-11-16T17:14:40.825Z,20.57
2017-11-16T17:17:09.768Z,21.00
2017-11-16T17:19:37.909Z,21.60
2017-11-16T17:22:06.811Z,22.63
2017-11-16T17:24:35.012Z,23.80
2017-11-16T17:27:03.127Z,24.13
2017-11-16T17:29:32.053Z,22.63
2017-11-16T17:32:00.204Z,25.17
2017-11-16T17:34:29.102Z,25.70
2017-11-16T17:36:57.311Z,25.80
2017-11-16T17:39:25.490Z,24.10
2017-11-16T17:41:53.654Z,22.90
2017-11-16T17:44:21.942Z,23.87
2017-11-16T17:46:50.079Z,22.33
2017-11-16T17:49:19.309Z,24.60
2017-11-16T17:51:47.484Z,23.50
2017-11-16T17:54:15.632Z,23.30
2017-11-16T17:56:43.803Z,22.20
2017-11-16T17:59:11.935Z,23.33
2017-11-16T18:01:40.856Z,23.50
2017-11-16T18:04:09.073Z,23.73
2017-11-16T18:06:37.200Z,22.77
2017-11-16T18:09:05.355Z,23.07
2017-11-16T18:11:34.254Z,23.50
2017-11-16T18:14:02.562Z,24.47
2017-11-16T18:16:30.682Z,21.67
2017-11-16T18:18:59.630Z,24.70
2017-11-16T18:21:27.790Z,22.13
2017-11-16T18:23:56.075Z,23.27
2017-11-16T18:26:24.213Z,23.27
2017-11-16T18:28:53.169Z,23.23
2017-11-16T18:31:21.367Z,22.17
2017-11-16T18:33:50.276Z,24.93
2017-11-16T18:36:18.469Z,24.13
2017-11-16T18:38:46.647Z,24.10
2017-11-16T18:41:14.856Z,22.00
2017-11-16T18:43:43.154Z,22.00
2017-11-16T18:46:12.115Z,24.67
2017-11-16T18:48:40.265Z,22.20
2017-11-16T18:51:08.423Z,20.83
2017-11-16T18:53:36.559Z,22.40
2017-11-16T18:56:05.561Z,21.80
2017-11-16T18:58:33.689Z,22.27
2017-11-16T19:01:02.609Z,20.97
2017-11-16T19:03:30.763Z,24.10
2017-11-16T19:05:58.876Z,24.53
2017-11-16T19:08:27.047Z,22.77
2017-11-16T19:10:55.939Z,23.17
2017-11-16T19:13:24.092Z,21.27
2017-11-16T19:15:52.209Z,23.00
2017-11-16T19:18:21.131Z,24.23
2017-11-16T19:20:49.289Z,24.90
2017-11-16T19:23:17.430Z,22.67
2017-11-16T19:25:45.582Z,21.10
2017-11-16T19:28:14.496Z,20.43
2017-11-16T19:30:42.674Z,22.37
2017-11-16T19:33:10.820Z,22.67
2017-11-16T19:35:39.719Z,21.77
2017-11-16T19:38:07.873Z,20.47
2017-11-16T19:40:36.783Z,21.70
2017-11-16T19:43:04.929Z,22.53
2017-11-16T19:45:33.074Z,22.93
2017-11-16T19:48:01.243Z,21.77
2017-11-16T19:50:29.387Z,22.20
2017-11-16T19:52:57.532Z,21.50
2017-11-16T19:55:26.447Z,21.93
2017-11-16T19:57:54.610Z,21.50
2017-11-16T20:00:23.527Z,20.80
2017-11-16T20:02:51.682Z,20.30
2017-11-16T20:05:20.607Z,20.53
2017-11-16T20:07:48.772Z,20.60
2017-11-16T20:10:16.920Z,21.60
2017-11-16T20:12:45.107Z,22.27
2017-11-16T20:15:13.258Z,20.33
2017-11-16T20:17:42.169Z,21.10
2017-11-16T20:20:10.317Z,20.10
2017-11-16T20:22:38.614Z,21.03
2017-11-16T20:25:07.522Z,20.93
2017-11-16T20:27:35.682Z,19.70
2017-11-16T20:30:03.823Z,20.83
2017-11-16T20:32:32.048Z,20.67
2017-11-16T20:35:00.187Z,19.67
2017-11-16T20:37:43.237Z,20.87
2017-11-16T20:40:17.304Z,19.47
2017-11-16T20:42:56.181Z,20.33
2017-11-16T20:45:40.133Z,19.87
2017-11-16T20:48:13.949Z,19.37
2017-11-16T20:50:48.595Z,21.47
2017-11-16T20:53:20.003Z,19.90
2017-11-16T20:55:48.157Z,19.17
2017-11-16T20:58:16.316Z,20.27
2017-11-16T21:00:45.205Z,20.13
2017-11-16T21:03:13.370Z,20.80
2017-11-16T21:05:41.530Z,20.40
2017-11-16T21:08:09.679Z,19.97
2017-11-16T21:10:37.830Z,19.67
2017-11-16T21:13:05.966Z,18.97
2017-11-16T21:15:34.107Z,18.30
2017-11-16T21:18:03.027Z,18.90
2017-11-16T21:23:06.666Z,21.67
2017-11-16T21:25:34.824Z,18.40
2017-11-16T21:28:02.949Z,22.40
2017-11-16T21:30:31.868Z,22.20
2017-11-16T21:33:00.003Z,21.20
2017-11-16T21:35:28.175Z,22.47
2017-11-16T21:37:56.327Z,20.40
2017-11-16T21:40:24.453Z,22.97
2017-11-16T21:42:52.640Z,21.77
2017-11-16T21:45:20.781Z,21.87
2017-11-16T21:47:49.739Z,21.03
2017-11-16T21:50:17.875Z,20.93
2017-11-16T21:52:46.016Z,20.00
2017-11-16T21:55:14.937Z,19.53
2017-11-16T21:57:43.089Z,21.40
2017-11-16T22:00:12.128Z,21.03
2017-11-16T22:02:40.259Z,20.77
2017-11-16T22:05:08.431Z,22.20
2017-11-16T22:07:37.345Z,21.33
2017-11-16T22:10:05.490Z,22.30
2017-11-16T22:12:34.381Z,21.20
2017-11-16T22:15:02.547Z,19.80
2017-11-16T22:17:31.439Z,21.03
2017-11-16T22:20:00.352Z,19.70
2017-11-16T22:22:28.483Z,19.83
2017-11-16T22:24:56.641Z,20.40
2017-11-16T22:27:24.804Z,20.57
2017-11-16T22:29:52.939Z,20.27
2017-11-16T22:32:21.172Z,21.37
2017-11-16T22:34:49.320Z,19.43
2017-11-16T22:37:17.460Z,19.90
2017-11-16T22:39:45.662Z,20.93
2017-11-16T22:42:13.809Z,23.00
2017-11-16T22:44:41.940Z,21.83
2017-11-16T22:47:10.862Z,21.87
2017-11-16T22:49:39.043Z,20.00
2017-11-16T22:52:07.162Z,21.70
2017-11-16T22:54:35.288Z,22.90
2017-11-16T22:57:03.422Z,22.80
2017-11-16T22:59:32.364Z,20.03
2017-11-16T23:02:00.512Z,22.37
2017-11-16T23:04:29.424Z,22.27
2017-11-16T23:06:57.598Z,21.73
2017-11-16T23:09:25.729Z,23.50
2017-11-16T23:11:54.622Z,22.60
2017-11-16T23:14:23.529Z,24.10
2017-11-16T23:16:52.425Z,22.20
2017-11-16T23:19:20.557Z,23.10
2017-11-16T23:24:23.914Z,22.10
2017-11-16T23:26:52.783Z,23.17
2017-11-16T23:29:21.665Z,22.67
2017-11-16T23:31:50.569Z,24.43
2017-11-16T23:34:19.472Z,23.87
2017-11-16T23:36:47.621Z,24.07
2017-11-16T23:39:16.518Z,23.67
2017-11-16T23:41:44.648Z,25.40
2017-11-16T23:44:12.812Z,24.57
2017-11-16T23:46:40.937Z,24.07
2017-11-16T23:49:09.061Z,26.20
2017-11-16T23:51:37.181Z,23.93
2017-11-16T23:54:05.329Z,25.80
2017-11-16T23:56:33.462Z,25.40
2017-11-16T23:59:01.605Z,24.17
